sensor_id;sensor_type;location;lat;lon;timestamp;P1;durP1;ratioP1;P2;durP2;ratioP2
71679;SDS011;59512;42.662;23.254;2023-07-29T00:00:43;5.43;;;2.92;;
71679;SDS011;59512;42.662;23.254;2023-07-29T00:03:09;6.40;;;3.10;;
71679;SDS011;59512;42.662;23.254;2023-07-29T00:05:34;7.13;;;3.10;;
71679;SDS011;59512;42.662;23.254;2023-07-29T00:08:00;6.53;;;3.10;;
71679;SDS011;59512;42.662;23.254;2023-07-29T00:10:26;5.18;;;2.80;;
71679;SDS011;59512;42.662;23.254;2023-07-29T00:12:52;6.65;;;3.05;;
71679;SDS011;59512;42.662;23.254;2023-07-29T00:15:17;6.53;;;2.80;;
71679;SDS011;59512;42.662;23.254;2023-07-29T00:17:43;5.93;;;2.80;;
71679;SDS011;59512;42.662;23.254;2023-07-29T00:20:08;7.43;;;3.10;;
71679;SDS011;59512;42.662;23.254;2023-07-29T00:22:34;5.93;;;3.30;;
71679;SDS011;59512;42.662;23.254;2023-07-29T00:24:59;6.90;;;3.13;;
71679;SDS011;59512;42.662;23.254;2023-07-29T00:27:25;6.30;;;3.27;;
71679;SDS011;59512;42.662;23.254;2023-07-29T00:29:50;5.63;;;2.88;;
71679;SDS011;59512;42.662;23.254;2023-07-29T00:32:16;7.03;;;3.03;;
71679;SDS011;59512;42.662;23.254;2023-07-29T00:34:41;6.10;;;3.33;;
71679;SDS011;59512;42.662;23.254;2023-07-29T00:37:07;7.03;;;3.37;;
71679;SDS011;59512;42.662;23.254;2023-07-29T00:39:32;6.13;;;3.13;;
71679;SDS011;59512;42.662;23.254;2023-07-29T00:41:58;6.37;;;3.10;;
71679;SDS011;59512;42.662;23.254;2023-07-29T00:44:24;7.03;;;3.10;;
71679;SDS011;59512;42.662;23.254;2023-07-29T00:46:52;5.90;;;3.43;;
71679;SDS011;59512;42.662;23.254;2023-07-29T00:49:18;6.30;;;3.40;;
71679;SDS011;59512;42.662;23.254;2023-07-29T00:51:44;7.73;;;3.23;;
71679;SDS011;59512;42.662;23.254;2023-07-29T00:54:10;6.85;;;3.30;;
71679;SDS011;59512;42.662;23.254;2023-07-29T00:56:35;6.60;;;3.83;;
71679;SDS011;59512;42.662;23.254;2023-07-29T00:59:01;6.77;;;3.40;;
71679;SDS011;59512;42.662;23.254;2023-07-29T01:01:30;5.80;;;3.08;;
71679;SDS011;59512;42.662;23.254;2023-07-29T01:03:56;5.90;;;3.30;;
71679;SDS011;59512;42.662;23.254;2023-07-29T01:09:09;7.10;;;3.65;;
71679;SDS011;59512;42.662;23.254;2023-07-29T01:15:13;6.35;;;3.35;;
71679;SDS011;59512;42.662;23.254;2023-07-29T01:17:52;14.53;;;3.60;;
71679;SDS011;59512;42.662;23.254;2023-07-29T01:20:19;6.70;;;3.30;;
71679;SDS011;59512;42.662;23.254;2023-07-29T01:22:45;8.10;;;3.63;;
71679;SDS011;59512;42.662;23.254;2023-07-29T01:25:12;8.20;;;3.50;;
71679;SDS011;59512;42.662;23.254;2023-07-29T01:27:38;6.88;;;3.53;;
71679;SDS011;59512;42.662;23.254;2023-07-29T01:30:04;6.70;;;3.47;;
71679;SDS011;59512;42.662;23.254;2023-07-29T01:38:14;6.45;;;3.50;;
71679;SDS011;59512;42.662;23.254;2023-07-29T01:40:43;7.60;;;3.70;;
71679;SDS011;59512;42.662;23.254;2023-07-29T01:43:09;7.13;;;3.40;;
71679;SDS011;59512;42.662;23.254;2023-07-29T01:45:35;8.07;;;3.30;;
71679;SDS011;59512;42.662;23.254;2023-07-29T01:48:05;7.72;;;3.42;;
71679;SDS011;59512;42.662;23.254;2023-07-29T01:50:32;7.73;;;3.73;;
71679;SDS011;59512;42.662;23.254;2023-07-29T01:52:57;6.95;;;3.80;;
71679;SDS011;59512;42.662;23.254;2023-07-29T01:55:23;8.02;;;4.15;;
71679;SDS011;59512;42.662;23.254;2023-07-29T01:57:48;6.50;;;3.67;;
71679;SDS011;59512;42.662;23.254;2023-07-29T02:00:14;7.23;;;3.70;;
71679;SDS011;59512;42.662;23.254;2023-07-29T02:02:40;7.68;;;3.70;;
71679;SDS011;59512;42.662;23.254;2023-07-29T02:05:06;9.10;;;3.73;;
71679;SDS011;59512;42.662;23.254;2023-07-29T02:07:31;5.97;;;3.30;;
71679;SDS011;59512;42.662;23.254;2023-07-29T02:09:57;6.45;;;3.13;;
71679;SDS011;59512;42.662;23.254;2023-07-29T02:12:22;7.30;;;3.60;;
71679;SDS011;59512;42.662;23.254;2023-07-29T02:14:47;6.93;;;3.67;;
71679;SDS011;59512;42.662;23.254;2023-07-29T02:17:13;7.03;;;3.77;;
71679;SDS011;59512;42.662;23.254;2023-07-29T02:19:38;6.78;;;3.88;;
71679;SDS011;59512;42.662;23.254;2023-07-29T02:22:04;6.72;;;3.80;;
71679;SDS011;59512;42.662;23.254;2023-07-29T02:24:29;8.00;;;3.90;;
71679;SDS011;59512;42.662;23.254;2023-07-29T02:26:54;7.67;;;3.37;;
71679;SDS011;59512;42.662;23.254;2023-07-29T02:29:20;6.63;;;3.80;;
71679;SDS011;59512;42.662;23.254;2023-07-29T02:31:46;6.20;;;3.43;;
71679;SDS011;59512;42.662;23.254;2023-07-29T02:34:12;7.05;;;3.72;;
71679;SDS011;59512;42.662;23.254;2023-07-29T02:36:38;7.23;;;4.23;;
71679;SDS011;59512;42.662;23.254;2023-07-29T02:39:03;8.30;;;3.90;;
71679;SDS011;59512;42.662;23.254;2023-07-29T02:41:29;7.97;;;4.00;;
71679;SDS011;59512;42.662;23.254;2023-07-29T02:43:54;7.57;;;3.43;;
71679;SDS011;59512;42.662;23.254;2023-07-29T02:46:20;8.88;;;4.10;;
71679;SDS011;59512;42.662;23.254;2023-07-29T02:48:45;8.43;;;4.55;;
71679;SDS011;59512;42.662;23.254;2023-07-29T02:51:11;9.37;;;4.00;;
71679;SDS011;59512;42.662;23.254;2023-07-29T02:53:36;6.47;;;3.63;;
71679;SDS011;59512;42.662;23.254;2023-07-29T02:56:02;8.93;;;3.97;;
71679;SDS011;59512;42.662;23.254;2023-07-29T02:58:31;7.00;;;4.10;;
71679;SDS011;59512;42.662;23.254;2023-07-29T03:01:00;7.82;;;3.78;;
71679;SDS011;59512;42.662;23.254;2023-07-29T03:03:27;9.98;;;4.47;;
71679;SDS011;59512;42.662;23.254;2023-07-29T03:06:02;6.53;;;3.90;;
71679;SDS011;59512;42.662;23.254;2023-07-29T03:08:28;7.18;;;3.90;;
71679;SDS011;59512;42.662;23.254;2023-07-29T03:10:54;8.27;;;4.27;;
71679;SDS011;59512;42.662;23.254;2023-07-29T03:13:20;7.07;;;4.00;;
71679;SDS011;59512;42.662;23.254;2023-07-29T03:15:46;7.97;;;3.90;;
71679;SDS011;59512;42.662;23.254;2023-07-29T03:18:11;9.60;;;4.10;;
71679;SDS011;59512;42.662;23.254;2023-07-29T03:20:37;9.43;;;4.20;;
71679;SDS011;59512;42.662;23.254;2023-07-29T03:23:02;10.57;;;4.77;;
71679;SDS011;59512;42.662;23.254;2023-07-29T03:25:28;10.13;;;4.50;;
71679;SDS011;59512;42.662;23.254;2023-07-29T03:27:54;8.73;;;4.43;;
71679;SDS011;59512;42.662;23.254;2023-07-29T03:30:20;7.60;;;4.20;;
71679;SDS011;59512;42.662;23.254;2023-07-29T03:32:46;9.20;;;4.78;;
71679;SDS011;59512;42.662;23.254;2023-07-29T03:35:12;8.80;;;3.77;;
71679;SDS011;59512;42.662;23.254;2023-07-29T03:37:37;11.73;;;4.47;;
71679;SDS011;59512;42.662;23.254;2023-07-29T03:40:03;9.43;;;4.53;;
71679;SDS011;59512;42.662;23.254;2023-07-29T03:42:29;10.27;;;4.17;;
71679;SDS011;59512;42.662;23.254;2023-07-29T03:44:55;10.70;;;4.30;;
71679;SDS011;59512;42.662;23.254;2023-07-29T03:47:20;9.17;;;4.37;;
71679;SDS011;59512;42.662;23.254;2023-07-29T03:49:45;9.33;;;4.07;;
71679;SDS011;59512;42.662;23.254;2023-07-29T03:52:11;7.97;;;3.90;;
71679;SDS011;59512;42.662;23.254;2023-07-29T03:54:36;8.37;;;4.10;;
71679;SDS011;59512;42.662;23.254;2023-07-29T03:57:02;7.78;;;3.88;;
71679;SDS011;59512;42.662;23.254;2023-07-29T03:59:27;7.53;;;4.40;;
71679;SDS011;59512;42.662;23.254;2023-07-29T04:01:52;12.27;;;5.17;;
71679;SDS011;59512;42.662;23.254;2023-07-29T04:04:18;7.75;;;4.35;;
71679;SDS011;59512;42.662;23.254;2023-07-29T04:06:44;7.77;;;4.60;;
71679;SDS011;59512;42.662;23.254;2023-07-29T04:09:09;11.50;;;4.80;;
71679;SDS011;59512;42.662;23.254;2023-07-29T04:11:34;10.47;;;4.90;;
71679;SDS011;59512;42.662;23.254;2023-07-29T04:14:00;9.07;;;4.53;;
71679;SDS011;59512;42.662;23.254;2023-07-29T04:16:25;11.33;;;5.37;;
71679;SDS011;59512;42.662;23.254;2023-07-29T04:18:51;12.07;;;6.50;;
71679;SDS011;59512;42.662;23.254;2023-07-29T04:21:16;11.10;;;5.83;;
71679;SDS011;59512;42.662;23.254;2023-07-29T04:23:42;9.98;;;4.68;;
71679;SDS011;59512;42.662;23.254;2023-07-29T04:26:07;10.57;;;5.13;;
71679;SDS011;59512;42.662;23.254;2023-07-29T04:28:33;9.93;;;4.73;;
71679;SDS011;59512;42.662;23.254;2023-07-29T04:30:58;9.37;;;5.20;;
71679;SDS011;59512;42.662;23.254;2023-07-29T04:33:24;8.07;;;4.82;;
71679;SDS011;59512;42.662;23.254;2023-07-29T04:35:50;10.17;;;5.07;;
71679;SDS011;59512;42.662;23.254;2023-07-29T04:38:15;11.07;;;5.30;;
71679;SDS011;59512;42.662;23.254;2023-07-29T04:40:40;8.98;;;4.72;;
71679;SDS011;59512;42.662;23.254;2023-07-29T04:43:06;8.52;;;5.28;;
71679;SDS011;59512;42.662;23.254;2023-07-29T04:45:31;10.27;;;5.20;;
71679;SDS011;59512;42.662;23.254;2023-07-29T04:47:57;13.33;;;6.07;;
71679;SDS011;59512;42.662;23.254;2023-07-29T04:50:23;13.20;;;7.20;;
71679;SDS011;59512;42.662;23.254;2023-07-29T04:52:49;11.20;;;5.70;;
71679;SDS011;59512;42.662;23.254;2023-07-29T04:55:14;10.40;;;5.78;;
71679;SDS011;59512;42.662;23.254;2023-07-29T04:57:40;9.25;;;5.60;;
71679;SDS011;59512;42.662;23.254;2023-07-29T05:00:05;11.37;;;5.40;;
71679;SDS011;59512;42.662;23.254;2023-07-29T05:02:31;11.68;;;6.88;;
71679;SDS011;59512;42.662;23.254;2023-07-29T05:04:56;10.80;;;6.03;;
71679;SDS011;59512;42.662;23.254;2023-07-29T05:07:22;10.57;;;5.70;;
71679;SDS011;59512;42.662;23.254;2023-07-29T05:09:47;10.27;;;5.80;;
71679;SDS011;59512;42.662;23.254;2023-07-29T05:12:13;10.20;;;5.15;;
71679;SDS011;59512;42.662;23.254;2023-07-29T05:14:38;11.00;;;5.77;;
71679;SDS011;59512;42.662;23.254;2023-07-29T05:17:04;13.70;;;6.03;;
71679;SDS011;59512;42.662;23.254;2023-07-29T05:19:30;10.18;;;5.75;;
71679;SDS011;59512;42.662;23.254;2023-07-29T05:21:56;10.63;;;5.30;;
71679;SDS011;59512;42.662;23.254;2023-07-29T05:24:22;10.95;;;5.82;;
71679;SDS011;59512;42.662;23.254;2023-07-29T05:26:48;9.60;;;5.28;;
71679;SDS011;59512;42.662;23.254;2023-07-29T05:29:13;10.57;;;5.63;;
71679;SDS011;59512;42.662;23.254;2023-07-29T05:31:39;13.35;;;5.55;;
71679;SDS011;59512;42.662;23.254;2023-07-29T05:34:04;9.90;;;5.80;;
71679;SDS011;59512;42.662;23.254;2023-07-29T05:36:30;8.87;;;5.40;;
71679;SDS011;59512;42.662;23.254;2023-07-29T05:38:55;9.63;;;5.50;;
71679;SDS011;59512;42.662;23.254;2023-07-29T05:41:21;12.23;;;6.30;;
71679;SDS011;59512;42.662;23.254;2023-07-29T05:43:46;9.23;;;4.80;;
71679;SDS011;59512;42.662;23.254;2023-07-29T05:46:12;9.20;;;4.70;;
71679;SDS011;59512;42.662;23.254;2023-07-29T05:48:37;11.07;;;5.95;;
71679;SDS011;59512;42.662;23.254;2023-07-29T05:51:03;10.03;;;5.60;;
71679;SDS011;59512;42.662;23.254;2023-07-29T05:53:30;12.07;;;7.15;;
71679;SDS011;59512;42.662;23.254;2023-07-29T05:55:56;11.97;;;5.67;;
71679;SDS011;59512;42.662;23.254;2023-07-29T05:58:22;12.60;;;8.02;;
71679;SDS011;59512;42.662;23.254;2023-07-29T06:00:47;18.93;;;13.60;;
71679;SDS011;59512;42.662;23.254;2023-07-29T06:03:13;23.20;;;13.67;;
71679;SDS011;59512;42.662;23.254;2023-07-29T06:05:39;19.05;;;13.00;;
71679;SDS011;59512;42.662;23.254;2023-07-29T06:08:04;15.37;;;8.97;;
71679;SDS011;59512;42.662;23.254;2023-07-29T06:10:30;12.85;;;8.07;;
71679;SDS011;59512;42.662;23.254;2023-07-29T06:12:55;11.07;;;5.60;;
71679;SDS011;59512;42.662;23.254;2023-07-29T06:15:21;12.33;;;5.63;;
71679;SDS011;59512;42.662;23.254;2023-07-29T06:17:49;12.90;;;6.28;;
71679;SDS011;59512;42.662;23.254;2023-07-29T06:20:14;12.03;;;5.57;;
71679;SDS011;59512;42.662;23.254;2023-07-29T06:22:40;10.80;;;5.55;;
71679;SDS011;59512;42.662;23.254;2023-07-29T06:25:06;9.90;;;5.45;;
71679;SDS011;59512;42.662;23.254;2023-07-29T06:27:32;10.45;;;5.03;;
71679;SDS011;59512;42.662;23.254;2023-07-29T06:29:57;9.73;;;5.17;;
71679;SDS011;59512;42.662;23.254;2023-07-29T06:32:22;10.07;;;5.00;;
71679;SDS011;59512;42.662;23.254;2023-07-29T06:34:48;11.77;;;5.07;;
71679;SDS011;59512;42.662;23.254;2023-07-29T06:37:13;9.32;;;5.00;;
71679;SDS011;59512;42.662;23.254;2023-07-29T06:39:39;8.90;;;4.57;;
71679;SDS011;59512;42.662;23.254;2023-07-29T06:42:04;8.43;;;4.40;;
71679;SDS011;59512;42.662;23.254;2023-07-29T06:44:30;11.40;;;4.90;;
71679;SDS011;59512;42.662;23.254;2023-07-29T06:46:57;9.87;;;4.87;;
71679;SDS011;59512;42.662;23.254;2023-07-29T06:49:23;13.93;;;4.43;;
71679;SDS011;59512;42.662;23.254;2023-07-29T06:51:48;9.10;;;4.53;;
71679;SDS011;59512;42.662;23.254;2023-07-29T06:54:14;9.93;;;4.13;;
71679;SDS011;59512;42.662;23.254;2023-07-29T06:56:41;9.18;;;4.55;;
71679;SDS011;59512;42.662;23.254;2023-07-29T06:59:06;9.93;;;4.47;;
71679;SDS011;59512;42.662;23.254;2023-07-29T07:01:32;8.77;;;4.35;;
71679;SDS011;59512;42.662;23.254;2023-07-29T07:03:57;8.20;;;4.30;;
71679;SDS011;59512;42.662;23.254;2023-07-29T07:06:23;9.00;;;4.47;;
71679;SDS011;59512;42.662;23.254;2023-07-29T07:08:49;11.70;;;4.80;;
71679;SDS011;59512;42.662;23.254;2023-07-29T07:11:15;11.77;;;4.60;;
71679;SDS011;59512;42.662;23.254;2023-07-29T07:13:41;8.70;;;4.53;;
71679;SDS011;59512;42.662;23.254;2023-07-29T07:16:06;9.73;;;4.72;;
71679;SDS011;59512;42.662;23.254;2023-07-29T07:18:32;9.73;;;4.70;;
71679;SDS011;59512;42.662;23.254;2023-07-29T07:20:57;8.70;;;4.37;;
71679;SDS011;59512;42.662;23.254;2023-07-29T07:23:23;9.80;;;4.35;;
71679;SDS011;59512;42.662;23.254;2023-07-29T07:25:48;8.85;;;4.07;;
71679;SDS011;59512;42.662;23.254;2023-07-29T07:28:14;9.57;;;4.00;;
71679;SDS011;59512;42.662;23.254;2023-07-29T07:30:40;7.37;;;3.80;;
71679;SDS011;59512;42.662;23.254;2023-07-29T07:33:08;8.02;;;4.13;;
71679;SDS011;59512;42.662;23.254;2023-07-29T07:35:34;9.35;;;4.32;;
71679;SDS011;59512;42.662;23.254;2023-07-29T07:37:59;8.63;;;4.23;;
71679;SDS011;59512;42.662;23.254;2023-07-29T07:40:27;8.77;;;4.60;;
71679;SDS011;59512;42.662;23.254;2023-07-29T07:42:52;6.93;;;4.10;;
71679;SDS011;59512;42.662;23.254;2023-07-29T07:45:18;9.13;;;4.17;;
71679;SDS011;59512;42.662;23.254;2023-07-29T07:47:43;13.27;;;4.60;;
71679;SDS011;59512;42.662;23.254;2023-07-29T07:50:09;9.27;;;3.70;;
71679;SDS011;59512;42.662;23.254;2023-07-29T07:52:34;10.30;;;4.32;;
71679;SDS011;59512;42.662;23.254;2023-07-29T07:55:00;8.10;;;3.90;;
71679;SDS011;59512;42.662;23.254;2023-07-29T07:57:26;7.93;;;4.13;;
71679;SDS011;59512;42.662;23.254;2023-07-29T07:59:51;20.20;;;4.37;;
71679;SDS011;59512;42.662;23.254;2023-07-29T08:02:17;8.23;;;4.38;;
71679;SDS011;59512;42.662;23.254;2023-07-29T08:04:43;9.88;;;4.20;;
71679;SDS011;59512;42.662;23.254;2023-07-29T08:07:08;7.70;;;4.00;;
71679;SDS011;59512;42.662;23.254;2023-07-29T08:09:34;13.63;;;4.97;;
71679;SDS011;59512;42.662;23.254;2023-07-29T08:11:59;7.38;;;3.88;;
71679;SDS011;59512;42.662;23.254;2023-07-29T08:14:25;8.35;;;4.35;;
71679;SDS011;59512;42.662;23.254;2023-07-29T08:16:51;10.23;;;4.00;;
71679;SDS011;59512;42.662;23.254;2023-07-29T08:19:17;9.85;;;4.63;;
71679;SDS011;59512;42.662;23.254;2023-07-29T08:21:42;10.23;;;4.30;;
71679;SDS011;59512;42.662;23.254;2023-07-29T08:24:08;8.40;;;4.40;;
71679;SDS011;59512;42.662;23.254;2023-07-29T08:26:33;8.50;;;4.78;;
71679;SDS011;59512;42.662;23.254;2023-07-29T08:28:58;8.33;;;4.00;;
71679;SDS011;59512;42.662;23.254;2023-07-29T08:31:24;9.47;;;4.47;;
71679;SDS011;59512;42.662;23.254;2023-07-29T08:33:49;10.53;;;4.23;;
71679;SDS011;59512;42.662;23.254;2023-07-29T08:36:15;9.63;;;3.90;;
71679;SDS011;59512;42.662;23.254;2023-07-29T08:38:41;7.17;;;3.70;;
71679;SDS011;59512;42.662;23.254;2023-07-29T08:43:43;10.30;;;3.85;;
71679;SDS011;59512;42.662;23.254;2023-07-29T08:46:13;8.05;;;3.70;;
71679;SDS011;59512;42.662;23.254;2023-07-29T08:48:41;7.57;;;3.33;;
71679;SDS011;59512;42.662;23.254;2023-07-29T08:51:09;6.45;;;3.40;;
71679;SDS011;59512;42.662;23.254;2023-07-29T08:53:36;8.87;;;3.40;;
71679;SDS011;59512;42.662;23.254;2023-07-29T08:56:02;7.10;;;3.45;;
71679;SDS011;59512;42.662;23.254;2023-07-29T08:58:28;7.63;;;3.53;;
71679;SDS011;59512;42.662;23.254;2023-07-29T09:00:54;7.63;;;3.67;;
71679;SDS011;59512;42.662;23.254;2023-07-29T09:03:20;7.30;;;3.40;;
71679;SDS011;59512;42.662;23.254;2023-07-29T09:05:46;9.13;;;2.90;;
71679;SDS011;59512;42.662;23.254;2023-07-29T09:08:11;5.73;;;2.90;;
71679;SDS011;59512;42.662;23.254;2023-07-29T09:10:37;9.63;;;2.85;;
71679;SDS011;59512;42.662;23.254;2023-07-29T09:13:06;6.23;;;3.03;;
71679;SDS011;59512;42.662;23.254;2023-07-29T09:15:32;6.13;;;2.80;;
71679;SDS011;59512;42.662;23.254;2023-07-29T09:18:08;8.75;;;3.10;;
71679;SDS011;59512;42.662;23.254;2023-07-29T09:20:35;7.28;;;2.20;;
71679;SDS011;59512;42.662;23.254;2023-07-29T09:23:00;4.70;;;1.77;;
71679;SDS011;59512;42.662;23.254;2023-07-29T09:25:26;4.83;;;1.93;;
71679;SDS011;59512;42.662;23.254;2023-07-29T09:27:52;5.30;;;1.67;;
71679;SDS011;59512;42.662;23.254;2023-07-29T09:30:18;6.27;;;1.90;;
71679;SDS011;59512;42.662;23.254;2023-07-29T09:32:43;6.18;;;1.92;;
71679;SDS011;59512;42.662;23.254;2023-07-29T09:35:12;5.57;;;1.67;;
71679;SDS011;59512;42.662;23.254;2023-07-29T09:37:38;3.75;;;1.58;;
71679;SDS011;59512;42.662;23.254;2023-07-29T09:40:04;5.45;;;2.40;;
71679;SDS011;59512;42.662;23.254;2023-07-29T09:42:31;5.68;;;2.03;;
71679;SDS011;59512;42.662;23.254;2023-07-29T09:44:57;7.13;;;3.10;;
71679;SDS011;59512;42.662;23.254;2023-07-29T09:47:23;5.30;;;2.13;;
71679;SDS011;59512;42.662;23.254;2023-07-29T09:49:50;5.95;;;2.10;;
71679;SDS011;59512;42.662;23.254;2023-07-29T09:52:16;6.20;;;2.50;;
71679;SDS011;59512;42.662;23.254;2023-07-29T09:54:43;7.35;;;2.55;;
71679;SDS011;59512;42.662;23.254;2023-07-29T09:57:10;6.40;;;2.30;;
71679;SDS011;59512;42.662;23.254;2023-07-29T09:59:36;6.40;;;2.25;;
71679;SDS011;59512;42.662;23.254;2023-07-29T10:02:01;4.73;;;2.20;;
71679;SDS011;59512;42.662;23.254;2023-07-29T10:04:27;5.80;;;2.30;;
71679;SDS011;59512;42.662;23.254;2023-07-29T10:06:54;6.00;;;2.20;;
71679;SDS011;59512;42.662;23.254;2023-07-29T10:09:20;6.00;;;2.17;;
71679;SDS011;59512;42.662;23.254;2023-07-29T10:11:46;5.97;;;2.50;;
71679;SDS011;59512;42.662;23.254;2023-07-29T10:14:11;4.97;;;2.07;;
71679;SDS011;59512;42.662;23.254;2023-07-29T10:16:37;6.55;;;2.30;;
71679;SDS011;59512;42.662;23.254;2023-07-29T10:19:03;6.00;;;2.10;;
71679;SDS011;59512;42.662;23.254;2023-07-29T10:21:29;6.18;;;1.90;;
71679;SDS011;59512;42.662;23.254;2023-07-29T10:23:55;4.20;;;1.60;;
71679;SDS011;59512;42.662;23.254;2023-07-29T10:26:22;6.82;;;1.98;;
71679;SDS011;59512;42.662;23.254;2023-07-29T10:28:48;6.18;;;1.80;;
71679;SDS011;59512;42.662;23.254;2023-07-29T10:31:18;6.67;;;1.90;;
71679;SDS011;59512;42.662;23.254;2023-07-29T10:33:44;4.72;;;1.60;;
71679;SDS011;59512;42.662;23.254;2023-07-29T10:36:09;4.50;;;1.50;;
71679;SDS011;59512;42.662;23.254;2023-07-29T10:38:35;3.90;;;1.50;;
71679;SDS011;59512;42.662;23.254;2023-07-29T10:41:01;4.57;;;1.80;;
71679;SDS011;59512;42.662;23.254;2023-07-29T10:43:27;5.57;;;1.97;;
71679;SDS011;59512;42.662;23.254;2023-07-29T10:45:53;5.38;;;1.60;;
71679;SDS011;59512;42.662;23.254;2023-07-29T10:54:15;4.63;;;1.60;;
71679;SDS011;59512;42.662;23.254;2023-07-29T10:56:42;3.90;;;1.35;;
71679;SDS011;59512;42.662;23.254;2023-07-29T11:01:38;4.50;;;1.47;;
71679;SDS011;59512;42.662;23.254;2023-07-29T11:17:47;4.00;;;1.67;;
71679;SDS011;59512;42.662;23.254;2023-07-29T11:20:13;4.10;;;1.58;;
71679;SDS011;59512;42.662;23.254;2023-07-29T11:22:40;3.63;;;1.63;;
71679;SDS011;59512;42.662;23.254;2023-07-29T11:25:06;6.55;;;1.83;;
71679;SDS011;59512;42.662;23.254;2023-07-29T11:27:33;4.90;;;1.60;;
71679;SDS011;59512;42.662;23.254;2023-07-29T11:29:59;4.60;;;1.65;;
71679;SDS011;59512;42.662;23.254;2023-07-29T11:32:25;4.07;;;1.60;;
71679;SDS011;59512;42.662;23.254;2023-07-29T11:34:51;4.43;;;1.63;;
71679;SDS011;59512;42.662;23.254;2023-07-29T11:37:16;6.07;;;1.80;;
71679;SDS011;59512;42.662;23.254;2023-07-29T11:39:42;4.17;;;1.50;;
71679;SDS011;59512;42.662;23.254;2023-07-29T11:42:11;4.65;;;1.45;;
71679;SDS011;59512;42.662;23.254;2023-07-29T11:44:37;5.80;;;1.45;;
71679;SDS011;59512;42.662;23.254;2023-07-29T11:47:06;4.47;;;1.52;;
71679;SDS011;59512;42.662;23.254;2023-07-29T11:49:34;4.13;;;1.50;;
71679;SDS011;59512;42.662;23.254;2023-07-29T11:52:01;4.47;;;1.70;;
71679;SDS011;59512;42.662;23.254;2023-07-29T11:54:28;5.00;;;1.50;;
71679;SDS011;59512;42.662;23.254;2023-07-29T11:56:53;8.15;;;1.50;;
71679;SDS011;59512;42.662;23.254;2023-07-29T11:59:19;4.55;;;1.60;;
71679;SDS011;59512;42.662;23.254;2023-07-29T12:01:45;4.63;;;1.50;;
71679;SDS011;59512;42.662;23.254;2023-07-29T12:04:10;5.43;;;1.63;;
71679;SDS011;59512;42.662;23.254;2023-07-29T12:06:36;4.07;;;1.40;;
71679;SDS011;59512;42.662;23.254;2023-07-29T12:09:02;4.53;;;1.70;;
71679;SDS011;59512;42.662;23.254;2023-07-29T12:11:28;4.60;;;1.38;;
71679;SDS011;59512;42.662;23.254;2023-07-29T12:13:53;4.70;;;1.40;;
71679;SDS011;59512;42.662;23.254;2023-07-29T12:16:19;4.43;;;1.40;;
71679;SDS011;59512;42.662;23.254;2023-07-29T12:18:44;5.73;;;1.50;;
71679;SDS011;59512;42.662;23.254;2023-07-29T12:21:10;7.40;;;1.80;;
71679;SDS011;59512;42.662;23.254;2023-07-29T12:23:36;3.83;;;1.23;;
71679;SDS011;59512;42.662;23.254;2023-07-29T12:26:01;7.37;;;1.80;;
71679;SDS011;59512;42.662;23.254;2023-07-29T12:28:27;6.20;;;1.70;;
71679;SDS011;59512;42.662;23.254;2023-07-29T12:30:56;4.43;;;1.63;;
71679;SDS011;59512;42.662;23.254;2023-07-29T12:33:31;4.90;;;1.50;;
71679;SDS011;59512;42.662;23.254;2023-07-29T12:35:58;5.30;;;1.80;;
71679;SDS011;59512;42.662;23.254;2023-07-29T12:38:27;4.93;;;1.83;;
71679;SDS011;59512;42.662;23.254;2023-07-29T12:40:53;5.32;;;1.73;;
71679;SDS011;59512;42.662;23.254;2023-07-29T12:43:18;5.82;;;1.80;;
71679;SDS011;59512;42.662;23.254;2023-07-29T12:45:44;5.07;;;1.83;;
71679;SDS011;59512;42.662;23.254;2023-07-29T12:48:10;4.60;;;1.63;;
71679;SDS011;59512;42.662;23.254;2023-07-29T12:50:36;3.72;;;1.45;;
71679;SDS011;59512;42.662;23.254;2023-07-29T12:53:02;4.00;;;1.50;;
71679;SDS011;59512;42.662;23.254;2023-07-29T12:55:27;5.63;;;1.60;;
71679;SDS011;59512;42.662;23.254;2023-07-29T12:57:53;3.88;;;1.40;;
71679;SDS011;59512;42.662;23.254;2023-07-29T13:00:18;3.77;;;1.50;;
71679;SDS011;59512;42.662;23.254;2023-07-29T13:02:44;3.87;;;1.43;;
71679;SDS011;59512;42.662;23.254;2023-07-29T13:05:10;4.70;;;1.67;;
71679;SDS011;59512;42.662;23.254;2023-07-29T13:07:40;4.43;;;1.40;;
71679;SDS011;59512;42.662;23.254;2023-07-29T13:10:06;4.10;;;1.60;;
71679;SDS011;59512;42.662;23.254;2023-07-29T13:12:32;3.55;;;1.30;;
71679;SDS011;59512;42.662;23.254;2023-07-29T13:14:57;4.50;;;1.63;;
71679;SDS011;59512;42.662;23.254;2023-07-29T13:17:23;4.32;;;1.70;;
71679;SDS011;59512;42.662;23.254;2023-07-29T13:19:48;5.97;;;1.67;;
71679;SDS011;59512;42.662;23.254;2023-07-29T13:22:14;4.00;;;1.60;;
71679;SDS011;59512;42.662;23.254;2023-07-29T13:24:39;4.97;;;1.90;;
71679;SDS011;59512;42.662;23.254;2023-07-29T13:27:05;4.80;;;1.90;;
71679;SDS011;59512;42.662;23.254;2023-07-29T13:29:30;6.63;;;2.07;;
71679;SDS011;59512;42.662;23.254;2023-07-29T13:31:56;4.17;;;1.67;;
71679;SDS011;59512;42.662;23.254;2023-07-29T13:34:21;6.15;;;1.67;;
71679;SDS011;59512;42.662;23.254;2023-07-29T13:36:47;4.00;;;1.90;;
71679;SDS011;59512;42.662;23.254;2023-07-29T13:39:12;4.93;;;1.90;;
71679;SDS011;59512;42.662;23.254;2023-07-29T13:41:38;5.37;;;1.80;;
71679;SDS011;59512;42.662;23.254;2023-07-29T13:44:03;4.57;;;1.90;;
71679;SDS011;59512;42.662;23.254;2023-07-29T13:46:29;4.68;;;2.10;;
71679;SDS011;59512;42.662;23.254;2023-07-29T13:48:54;5.67;;;2.13;;
71679;SDS011;59512;42.662;23.254;2023-07-29T13:51:19;5.80;;;1.97;;
71679;SDS011;59512;42.662;23.254;2023-07-29T13:53:45;5.60;;;2.03;;
71679;SDS011;59512;42.662;23.254;2023-07-29T13:56:10;8.70;;;3.15;;
71679;SDS011;59512;42.662;23.254;2023-07-29T13:58:36;6.20;;;2.70;;
71679;SDS011;59512;42.662;23.254;2023-07-29T14:01:01;6.40;;;2.60;;
71679;SDS011;59512;42.662;23.254;2023-07-29T14:03:26;5.87;;;2.67;;
71679;SDS011;59512;42.662;23.254;2023-07-29T14:05:52;6.10;;;2.78;;
71679;SDS011;59512;42.662;23.254;2023-07-29T14:08:17;4.43;;;2.13;;
71679;SDS011;59512;42.662;23.254;2023-07-29T14:10:43;5.97;;;2.70;;
71679;SDS011;59512;42.662;23.254;2023-07-29T14:13:08;5.30;;;2.50;;
71679;SDS011;59512;42.662;23.254;2023-07-29T14:15:33;5.33;;;2.60;;
71679;SDS011;59512;42.662;23.254;2023-07-29T14:17:59;6.28;;;2.90;;
71679;SDS011;59512;42.662;23.254;2023-07-29T14:20:24;7.73;;;2.50;;
71679;SDS011;59512;42.662;23.254;2023-07-29T14:22:50;6.87;;;2.40;;
71679;SDS011;59512;42.662;23.254;2023-07-29T14:25:15;8.30;;;2.90;;
71679;SDS011;59512;42.662;23.254;2023-07-29T14:27:41;8.17;;;3.13;;
71679;SDS011;59512;42.662;23.254;2023-07-29T14:30:06;5.45;;;2.80;;
71679;SDS011;59512;42.662;23.254;2023-07-29T14:32:32;7.80;;;2.67;;
71679;SDS011;59512;42.662;23.254;2023-07-29T14:34:58;7.72;;;3.15;;
71679;SDS011;59512;42.662;23.254;2023-07-29T14:37:25;6.72;;;2.72;;
71679;SDS011;59512;42.662;23.254;2023-07-29T14:39:50;5.30;;;1.93;;
71679;SDS011;59512;42.662;23.254;2023-07-29T14:42:16;5.07;;;2.15;;
71679;SDS011;59512;42.662;23.254;2023-07-29T14:44:41;5.10;;;2.20;;
71679;SDS011;59512;42.662;23.254;2023-07-29T14:47:07;5.93;;;2.20;;
71679;SDS011;59512;42.662;23.254;2023-07-29T14:49:33;5.63;;;2.20;;
71679;SDS011;59512;42.662;23.254;2023-07-29T14:51:58;6.33;;;2.23;;
71679;SDS011;59512;42.662;23.254;2023-07-29T14:54:24;5.03;;;1.97;;
71679;SDS011;59512;42.662;23.254;2023-07-29T14:56:49;5.00;;;2.10;;
71679;SDS011;59512;42.662;23.254;2023-07-29T14:59:14;5.65;;;2.08;;